Time;durP1;ratioP1;P1;durP2;ratioP2;P2;SDS_P1;SDS_P2;PMS_P1;PMS_P2;Temp;Humidity;BMP_temperature;BMP_pressure;BME280_temperature;BME280_humidity;BME280_pressure;Samples;Min_cycle;Max_cycle;Signal;HPM_P1;HPM_P2
2021/12/01 00:00:27;;;;;;;11.77;5.82;;;;;;;4.98;61.69;100341.59;5001022;28;20476;-87
2021/12/01 00:02:56;;;;;;;11.20;6.20;;;;;;;5.13;60.67;100345.53;4984607;28;20034;-88
2021/12/01 00:05:25;;;;;;;12.45;6.10;;;;;;;5.13;59.77;100350.81;4982429;28;20053;-90
2021/12/01 00:07:53;;;;;;;11.68;6.32;;;;;;;5.20;58.85;100351.94;4982330;28;20184;-90
2021/12/01 00:10:20;;;;;;;15.13;6.03;;;;;;;5.22;58.99;100344.75;4982675;28;20546;-88
2021/12/01 00:12:46;;;;;;;11.23;6.28;;;;;;;5.37;59.08;100338.16;4998158;28;20502;-89
2021/12/01 00:15:12;;;;;;;12.45;6.40;;;;;;;5.31;59.49;100337.84;4981149;28;20524;-89
2021/12/01 00:17:38;;;;;;;11.10;5.97;;;;;;;5.50;58.38;100333.47;4981363;28;20034;-86
2021/12/01 00:20:06;;;;;;;9.95;5.60;;;;;;;5.39;59.17;100341.50;4998790;28;20058;-89
2021/12/01 00:22:35;;;;;;;9.82;5.65;;;;;;;5.40;59.27;100343.13;4980663;28;20038;-88
2021/12/01 00:25:00;;;;;;;11.30;5.90;;;;;;;5.37;59.12;100337.34;4980335;28;20396;-89
2021/12/01 00:27:26;;;;;;;19.95;6.82;;;;;;;5.39;59.22;100336.25;5000377;28;20489;-89
2021/12/01 00:29:52;;;;;;;14.00;6.30;;;;;;;5.47;59.00;100328.50;4995037;28;20115;-88
2021/12/01 00:32:18;;;;;;;11.32;5.88;;;;;;;5.31;59.64;100332.59;4974784;28;20073;-91
2021/12/01 00:34:44;;;;;;;12.50;5.80;;;;;;;5.42;59.02;100330.72;5004336;28;20026;-90
2021/12/01 00:37:13;;;;;;;10.27;5.85;;;;;;;5.42;59.51;100335.13;4986816;28;20034;-90
2021/12/01 00:39:39;;;;;;;10.60;5.63;;;;;;;5.45;59.68;100332.22;5001353;28;20394;-88
2021/12/01 00:42:06;;;;;;;16.92;5.97;;;;;;;5.48;59.59;100329.34;5006117;28;20085;-90
2021/12/01 00:44:34;;;;;;;12.98;6.05;;;;;;;5.51;58.64;100332.53;5016274;28;20078;-89
2021/12/01 00:49:35;;;;;;;10.77;6.13;;;;;;;5.51;58.77;100326.44;5004470;28;20065;-88
2021/12/01 00:52:01;;;;;;;13.05;5.82;;;;;;;5.58;58.94;100323.16;4969356;28;20030;-89
2021/12/01 00:54:26;;;;;;;18.02;6.13;;;;;;;5.34;57.75;100321.81;5004010;28;20037;-88
2021/12/01 00:56:52;;;;;;;14.38;6.63;;;;;;;5.17;57.96;100320.69;5005493;28;20041;-89
2021/12/01 00:59:21;;;;;;;12.10;5.80;;;;;;;5.04;58.97;100320.03;4990788;28;20087;-89
2021/12/01 01:01:47;;;;;;;10.50;5.60;;;;;;;4.93;60.15;100317.53;5010438;28;20037;-88
2021/12/01 01:04:13;;;;;;;10.27;6.07;;;;;;;5.02;59.89;100316.72;4995025;28;20070;-90
2021/12/01 01:06:39;;;;;;;8.88;5.60;;;;;;;5.02;59.15;100314.09;5010157;28;20073;-89
2021/12/01 01:09:07;;;;;;;12.65;6.10;;;;;;;5.00;59.36;100316.03;4993274;28;20030;-90
2021/12/01 01:17:08;;;;;;;12.73;5.72;;;;;;;4.72;61.13;100308.84;4991187;28;20045;-90
2021/12/01 01:19:36;;;;;;;10.95;5.78;;;;;;;4.60;62.00;100311.56;4983509;28;20444;-90
2021/12/01 01:22:03;;;;;;;10.32;5.72;;;;;;;4.55;61.78;100311.09;4983635;28;20046;-88
2021/12/01 01:24:29;;;;;;;9.30;5.82;;;;;;;4.66;61.82;100316.28;5000883;28;20034;-89
2021/12/01 01:27:00;;;;;;;12.30;5.93;;;;;;;4.61;61.04;100313.19;5000088;28;20034;-90
2021/12/01 01:29:27;;;;;;;12.47;6.00;;;;;;;4.62;61.61;100309.63;5000526;28;20054;-88
2021/12/01 01:31:56;;;;;;;12.85;6.00;;;;;;;4.59;60.86;100304.63;4981681;28;20033;-89
2021/12/01 01:34:24;;;;;;;13.93;6.15;;;;;;;4.55;61.71;100303.22;4999749;28;20120;-91
2021/12/01 01:36:52;;;;;;;15.38;6.85;;;;;;;4.72;61.56;100303.59;4999953;28;20034;-90
2021/12/01 01:39:19;;;;;;;9.88;5.50;;;;;;;4.91;60.90;100301.06;4982583;28;20026;-91
2021/12/01 01:41:58;;;;;;;10.73;5.07;;;;;;;5.12;59.83;100304.47;4984611;28;20552;-89
2021/12/01 01:44:30;;;;;;;11.82;5.50;;;;;;;5.13;59.85;100298.25;4985444;28;20101;-90
2021/12/01 01:46:57;;;;;;;12.40;5.47;;;;;;;5.20;58.82;100299.41;4987383;28;20049;-90
2021/12/01 01:49:45;;;;;;;14.60;5.63;;;;;;;5.14;59.76;100295.50;5010941;28;20038;-88
2021/12/01 01:52:12;;;;;;;12.68;5.78;;;;;;;5.05;59.80;100300.72;4986102;28;20044;-89
2021/12/01 01:54:38;;;;;;;12.88;6.05;;;;;;;5.00;61.33;100292.41;4986893;28;20083;-89
2021/12/01 01:57:04;;;;;;;13.90;5.90;;;;;;;4.94;61.18;100293.75;5002182;28;20397;-87
2021/12/01 01:59:30;;;;;;;10.77;5.47;;;;;;;4.79;60.51;100288.97;4936182;28;20094;-87
2021/12/01 02:01:58;;;;;;;12.05;5.43;;;;;;;4.98;60.24;100284.66;4968594;28;20049;-89
2021/12/01 02:04:26;;;;;;;11.50;5.40;;;;;;;4.82;60.99;100288.72;4983338;28;20042;-91
2021/12/01 02:06:52;;;;;;;10.60;5.15;;;;;;;4.85;61.02;100285.81;4985041;28;20038;-90
2021/12/01 02:09:23;;;;;;;8.02;4.80;;;;;;;4.93;60.56;100280.75;5001600;28;20038;-89
2021/12/01 02:11:52;;;;;;;13.13;5.70;;;;;;;4.92;60.31;100279.94;5000055;28;20034;-90
2021/12/01 02:14:17;;;;;;;12.27;5.18;;;;;;;5.11;60.31;100274.75;4981640;28;20034;-90
2021/12/01 02:16:44;;;;;;;9.88;4.72;;;;;;;5.13;60.86;100266.75;4999163;28;20081;-89
2021/12/01 02:19:10;;;;;;;11.20;5.07;;;;;;;5.32;59.90;100266.78;4996792;28;20085;-90
2021/12/01 02:21:35;;;;;;;10.43;4.65;;;;;;;5.28;60.90;100269.81;4997237;28;20034;-90
2021/12/01 02:24:07;;;;;;;11.60;4.95;;;;;;;5.38;60.59;100266.25;4999063;28;20451;-90
2021/12/01 02:26:38;;;;;;;8.07;4.75;;;;;;;5.43;60.58;100261.44;4999910;28;20038;-89
2021/12/01 02:29:07;;;;;;;8.23;4.72;;;;;;;5.48;59.53;100263.63;4999855;28;20045;-89
2021/12/01 02:31:35;;;;;;;11.63;5.10;;;;;;;5.61;60.04;100261.56;4981780;28;20053;-89
2021/12/01 02:34:10;;;;;;;11.43;4.88;;;;;;;5.66;59.56;100254.13;4981633;28;20454;-89
2021/12/01 02:36:37;;;;;;;13.05;5.43;;;;;;;5.57;60.23;100247.03;5001245;28;20050;-89
2021/12/01 02:39:09;;;;;;;17.15;5.75;;;;;;;5.51;60.49;100245.78;4999091;28;20045;-89
2021/12/01 02:41:36;;;;;;;11.55;5.50;;;;;;;5.54;60.11;100240.25;4999611;28;20031;-90
2021/12/01 02:44:04;;;;;;;10.38;5.32;;;;;;;5.58;59.90;100238.19;4998674;28;20050;-90
2021/12/01 02:46:30;;;;;;;12.80;5.82;;;;;;;5.59;60.38;100235.44;4998426;28;20045;-89
2021/12/01 02:48:56;;;;;;;11.00;5.50;;;;;;;5.31;61.21;100228.34;4997809;28;20038;-89
2021/12/01 02:51:26;;;;;;;11.38;4.72;;;;;;;5.30;60.53;100224.06;4980592;28;20061;-90
2021/12/01 02:53:52;;;;;;;9.05;5.03;;;;;;;5.22;62.14;100224.72;4966775;28;20449;-90
2021/12/01 02:56:22;;;;;;;11.48;5.28;;;;;;;5.34;61.61;100225.44;5001641;28;20105;-90
2021/12/01 02:58:52;;;;;;;10.60;5.63;;;;;;;5.31;62.43;100230.13;4965409;28;20042;-89
2021/12/01 03:01:24;;;;;;;14.93;5.72;;;;;;;5.19;63.05;100225.00;4999057;28;20046;-88
2021/12/01 03:03:51;;;;;;;11.60;5.38;;;;;;;4.95;63.49;100216.63;4966543;28;20045;-90
2021/12/01 03:06:19;;;;;;;10.43;5.60;;;;;;;5.04;63.77;100225.50;4981899;28;20043;-89
2021/12/01 03:08:47;;;;;;;10.00;5.30;;;;;;;4.99;63.19;100227.72;4982884;28;20069;-91
2021/12/01 03:11:14;;;;;;;12.48;5.80;;;;;;;4.84;63.63;100224.59;5017202;28;20038;-90
2021/12/01 03:13:41;;;;;;;8.60;5.25;;;;;;;4.87;65.16;100213.84;5017569;28;20086;-89
2021/12/01 03:16:09;;;;;;;9.80;5.82;;;;;;;4.80;64.98;100211.91;5018090;28;20022;-90
2021/12/01 03:18:38;;;;;;;11.68;5.50;;;;;;;4.77;65.07;100217.41;5004280;28;20085;-90
2021/12/01 03:21:04;;;;;;;12.68;5.70;;;;;;;4.83;64.49;100212.47;4985035;28;20042;-91
2021/12/01 03:23:30;;;;;;;12.10;5.47;;;;;;;4.78;65.49;100219.06;4984957;28;20030;-88
2021/12/01 03:25:56;;;;;;;9.38;5.50;;;;;;;4.64;66.68;100218.44;5008270;28;20038;-90
2021/12/01 03:28:22;;;;;;;8.25;4.82;;;;;;;4.79;65.80;100204.97;5013708;28;20035;-90
2021/12/01 03:30:48;;;;;;;13.50;5.45;;;;;;;4.73;65.62;100210.75;4995752;28;20062;-89
2021/12/01 03:33:18;;;;;;;10.27;5.63;;;;;;;4.36;68.90;100203.41;5016563;28;20044;-89
2021/12/01 03:35:48;;;;;;;11.68;5.90;;;;;;;4.64;68.10;100204.50;4981178;28;20037;-89
2021/12/01 03:38:14;;;;;;;11.88;5.47;;;;;;;4.67;67.81;100202.44;4991236;28;20038;-90
2021/12/01 03:40:40;;;;;;;11.73;5.60;;;;;;;4.67;67.24;100196.38;5004892;28;20046;-88
2021/12/01 03:43:05;;;;;;;9.68;4.60;;;;;;;4.39;69.31;100192.66;4985882;28;20030;-91
2021/12/01 03:45:31;;;;;;;23.05;8.20;;;;;;;4.37;69.89;100193.75;4985722;28;20045;-93
2021/12/01 03:47:57;;;;;;;11.60;5.40;;;;;;;4.21;70.41;100183.72;5006116;28;20094;-90
2021/12/01 03:50:23;;;;;;;11.60;5.97;;;;;;;4.24;70.17;100190.50;4986805;28;20113;-90
2021/12/01 03:52:50;;;;;;;10.98;5.40;;;;;;;4.25;70.77;100190.38;5005730;28;20516;-92
2021/12/01 03:55:15;;;;;;;10.73;5.43;;;;;;;4.38;69.73;100185.75;5007367;28;20053;-92
2021/12/01 03:57:41;;;;;;;12.00;5.97;;;;;;;4.21;70.55;100183.72;4984838;28;20046;-91
2021/12/01 04:00:10;;;;;;;10.95;5.20;;;;;;;4.07;71.92;100192.78;5003283;28;20050;-89
2021/12/01 04:02:39;;;;;;;9.10;5.28;;;;;;;4.17;71.36;100187.56;5002807;28;20125;-91
2021/12/01 04:05:05;;;;;;;9.85;5.38;;;;;;;4.25;71.24;100177.25;5003530;28;20034;-91
2021/12/01 04:07:31;;;;;;;10.57;5.47;;;;;;;4.23;71.48;100186.22;5003842;28;20060;-89
2021/12/01 04:09:57;;;;;;;11.82;5.25;;;;;;;4.23;72.08;100189.69;5002048;28;20042;-89
2021/12/01 04:12:22;;;;;;;9.93;5.45;;;;;;;4.18;71.65;100176.94;4984864;28;20041;-89
2021/12/01 04:14:48;;;;;;;14.98;5.57;;;;;;;4.16;72.25;100175.41;5000562;28;20393;-89
2021/12/01 04:17:13;;;;;;;9.45;5.25;;;;;;;4.27;71.51;100177.13;5000758;28;20045;-89
2021/12/01 04:19:39;;;;;;;15.30;5.45;;;;;;;4.22;72.80;100176.69;5001880;28;20039;-92
2021/12/01 04:22:05;;;;;;;9.75;5.28;;;;;;;4.12;72.70;100174.00;4985247;28;20096;-90
2021/12/01 04:24:31;;;;;;;13.55;5.45;;;;;;;3.79;74.81;100179.44;4985962;28;20070;-90
2021/12/01 04:26:57;;;;;;;13.80;5.57;;;;;;;3.56;76.86;100166.47;5001860;28;20080;-89
2021/12/01 04:29:25;;;;;;;11.48;5.25;;;;;;;3.75;76.15;100167.56;4969609;28;20045;-89
2021/12/01 04:31:51;;;;;;;14.77;5.80;;;;;;;3.51;77.74;100171.25;4983623;28;20035;-89
2021/12/01 04:34:23;;;;;;;10.68;5.43;;;;;;;3.61;77.40;100166.91;4996098;28;20094;-89
2021/12/01 04:36:50;;;;;;;15.20;5.45;;;;;;;3.44;78.36;100172.72;5009604;28;20034;-90
2021/12/01 04:39:18;;;;;;;15.45;6.47;;;;;;;3.53;77.78;100168.50;4985820;28;20038;-90
2021/12/01 04:41:52;;;;;;;9.13;5.07;;;;;;;3.56;77.53;100166.47;5002617;28;20030;-90
2021/12/01 04:44:21;;;;;;;11.48;5.07;;;;;;;3.76;77.07;100166.59;5000272;28;20041;-91
2021/12/01 04:46:48;;;;;;;9.82;5.32;;;;;;;3.72;76.98;100170.44;4967688;28;20116;-90
2021/12/01 04:49:18;;;;;;;8.63;5.25;;;;;;;3.82;77.02;100176.56;4982543;28;20089;-89
2021/12/01 04:51:50;;;;;;;14.15;5.22;;;;;;;3.68;77.90;100166.44;4999223;28;20049;-89
2021/12/01 04:54:16;;;;;;;10.98;5.75;;;;;;;3.54;78.97;100168.41;5002074;28;20031;-89
2021/12/01 04:56:43;;;;;;;9.35;5.50;;;;;;;3.64;78.12;100173.72;5001538;28;20030;-90
2021/12/01 04:59:10;;;;;;;14.98;5.32;;;;;;;3.34;79.43;100171.81;5003602;28;20042;-88
2021/12/01 05:01:36;;;;;;;10.40;4.82;;;;;;;3.26;80.51;100182.06;5003378;28;20054;-93
2021/12/01 05:04:04;;;;;;;10.52;5.00;;;;;;;3.23;81.44;100182.31;5006460;28;20049;-90
2021/12/01 05:06:32;;;;;;;16.90;5.45;;;;;;;3.42;80.42;100189.50;4986614;28;20100;-90
2021/12/01 05:08:58;;;;;;;9.07;4.97;;;;;;;3.61;78.80;100180.00;4966389;28;20512;-88
2021/12/01 05:11:25;;;;;;;8.77;4.70;;;;;;;3.72;78.82;100175.66;4983402;28;20112;-90
2021/12/01 05:13:51;;;;;;;8.90;5.20;;;;;;;3.60;78.75;100172.28;5001400;28;20117;-90
2021/12/01 05:16:17;;;;;;;13.23;4.97;;;;;;;3.81;78.30;100177.56;4965989;28;20049;-89
2021/12/01 05:18:42;;;;;;;14.20;5.97;;;;;;;3.87;78.03;100180.50;4998035;28;20445;-86
2021/12/01 05:21:08;;;;;;;10.35;5.10;;;;;;;3.92;77.91;100174.84;4998381;28;20041;-89
2021/12/01 05:23:33;;;;;;;15.13;5.65;;;;;;;3.99;77.74;100178.63;4997655;28;20065;-89
2021/12/01 05:25:59;;;;;;;15.65;6.25;;;;;;;3.93;76.99;100171.28;5004173;28;20561;-87
2021/12/01 05:28:25;;;;;;;10.73;5.35;;;;;;;3.82;78.41;100173.94;5017060;28;20038;-88
2021/12/01 05:30:51;;;;;;;9.57;5.18;;;;;;;3.76;78.78;100166.59;5016266;28;20030;-85
2021/12/01 05:33:20;;;;;;;14.55;4.93;;;;;;;3.82;79.21;100168.72;5019528;28;20435;-86
2021/12/01 05:35:46;;;;;;;17.48;5.65;;;;;;;3.94;77.79;100167.72;5024687;28;20041;-89
2021/12/01 05:38:15;;;;;;;15.52;5.03;;;;;;;3.86;77.95;100164.88;5026599;28;20077;-89
2021/12/01 05:40:40;;;;;;;9.30;4.30;;;;;;;3.98;78.38;100180.41;5019435;28;20042;-87
2021/12/01 05:43:06;;;;;;;9.52;5.03;;;;;;;4.00;77.53;100173.25;5035844;28;20065;-86
2021/12/01 05:45:32;;;;;;;10.77;4.97;;;;;;;4.04;77.49;100158.09;5032769;28;20061;-88
2021/12/01 05:47:58;;;;;;;11.65;5.10;;;;;;;3.96;77.86;100169.22;5005046;28;20068;-88
2021/12/01 05:50:24;;;;;;;12.63;6.38;;;;;;;3.58;79.64;100167.16;5004800;28;20046;-89
2021/12/01 05:52:53;;;;;;;11.85;5.07;;;;;;;3.76;79.76;100172.69;5026999;28;20034;-90
2021/12/01 05:55:19;;;;;;;17.02;5.43;;;;;;;3.65;79.99;100172.72;5004840;28;20053;-87
2021/12/01 05:57:44;;;;;;;13.63;5.10;;;;;;;3.60;80.92;100173.13;5020664;28;20033;-84
2021/12/01 06:00:12;;;;;;;11.65;4.85;;;;;;;3.58;80.83;100174.19;5013887;28;20034;-84
2021/12/01 06:02:38;;;;;;;10.25;4.70;;;;;;;3.64;80.48;100171.09;5014572;28;20030;-83
2021/12/01 06:05:04;;;;;;;13.60;6.03;;;;;;;3.64;80.10;100168.47;5012878;28;20030;-85
2021/12/01 06:07:30;;;;;;;10.70;5.85;;;;;;;3.57;80.47;100178.63;5012172;28;20064;-84
2021/12/01 06:10:00;;;;;;;11.40;5.28;;;;;;;3.63;80.48;100170.25;5014652;28;20046;-85
2021/12/01 06:12:25;;;;;;;10.18;5.32;;;;;;;3.71;80.54;100169.63;5013553;28;20034;-85
2021/12/01 06:14:51;;;;;;;12.93;5.60;;;;;;;3.66;80.52;100169.16;5014956;28;20041;-86
2021/12/01 06:17:17;;;;;;;17.52;6.03;;;;;;;3.52;81.46;100175.53;5015807;28;20111;-84
2021/12/01 06:19:42;;;;;;;12.48;6.22;;;;;;;3.57;81.32;100172.53;5014369;28;20034;-85
2021/12/01 06:22:08;;;;;;;13.07;6.97;;;;;;;3.31;83.52;100164.19;5015893;28;20097;-83
2021/12/01 06:24:35;;;;;;;16.25;6.70;;;;;;;3.46;83.39;100160.31;5015447;28;20508;-85
2021/12/01 06:27:01;;;;;;;17.65;6.85;;;;;;;3.52;82.31;100165.06;5014548;28;20052;-85
2021/12/01 06:29:27;;;;;;;11.85;6.53;;;;;;;3.54;82.84;100173.63;5015458;28;20093;-87
2021/12/01 06:31:53;;;;;;;13.30;6.15;;;;;;;3.50;82.87;100163.53;4998729;28;20041;-87
2021/12/01 06:34:18;;;;;;;13.00;5.97;;;;;;;3.31;84.43;100176.47;4974960;28;20034;-86
2021/12/01 06:36:44;;;;;;;14.48;6.32;;;;;;;3.22;85.14;100178.03;5021152;28;20175;-86
2021/12/01 06:39:10;;;;;;;32.13;7.28;;;;;;;2.69;88.85;100179.66;5003270;28;20030;-88
2021/12/01 06:41:36;;;;;;;23.17;8.10;;;;;;;2.52;90.51;100173.13;5002019;28;20129;-88
2021/12/01 06:44:04;;;;;;;16.48;7.45;;;;;;;2.30;93.15;100175.75;4983937;28;20034;-88
2021/12/01 06:46:32;;;;;;;14.63;7.00;;;;;;;2.29;93.76;100175.88;5006835;28;20052;-86
2021/12/01 06:49:04;;;;;;;14.63;5.75;;;;;;;2.32;93.25;100166.00;5026368;28;20029;-88
2021/12/01 06:51:29;;;;;;;10.20;5.05;;;;;;;2.60;91.61;100169.94;5023718;28;20038;-88
2021/12/01 06:53:58;;;;;;;13.95;5.32;;;;;;;3.07;89.90;100174.03;5023000;28;20429;-89
2021/12/01 06:56:24;;;;;;;15.52;5.38;;;;;;;3.36;87.91;100164.66;5020306;28;20064;-89
2021/12/01 06:58:50;;;;;;;14.82;6.10;;;;;;;3.68;85.11;100180.34;5020078;28;20073;-88
2021/12/01 07:01:16;;;;;;;11.73;6.43;;;;;;;4.07;84.00;100182.28;5004198;28;20042;-90
2021/12/01 07:03:45;;;;;;;15.30;5.95;;;;;;;4.16;82.75;100193.78;5011769;28;20049;-88
2021/12/01 07:06:10;;;;;;;13.10;6.30;;;;;;;4.59;80.50;100189.16;5011032;28;20060;-88
2021/12/01 07:08:37;;;;;;;12.90;6.80;;;;;;;4.64;78.97;100192.19;5010106;28;20041;-87
2021/12/01 07:11:04;;;;;;;13.20;6.13;;;;;;;5.61;75.68;100194.06;5028903;28;20038;-89
2021/12/01 07:13:32;;;;;;;11.27;6.10;;;;;;;5.57;73.43;100195.31;5011700;28;20041;-88
2021/12/01 07:15:58;;;;;;;18.85;6.28;;;;;;;5.59;73.23;100190.75;5027176;28;20053;-89
2021/12/01 07:18:27;;;;;;;16.45;6.60;;;;;;;6.20;72.17;100188.63;5024314;28;20081;-87
2021/12/01 07:20:56;;;;;;;25.52;7.20;;;;;;;6.33;69.72;100185.66;5024728;28;20033;-89
2021/12/01 07:23:25;;;;;;;13.13;6.63;;;;;;;7.10;68.63;100187.97;5026613;28;20070;-88
2021/12/01 07:25:50;;;;;;;16.70;7.20;;;;;;;7.61;64.04;100196.06;5007083;28;20098;-88
2021/12/01 07:28:16;;;;;;;17.98;8.30;;;;;;;8.41;61.74;100189.78;5020812;28;20131;-88
2021/12/01 07:30:43;;;;;;;17.17;8.18;;;;;;;8.83;59.42;100195.94;5022439;28;20107;-87
2021/12/01 07:33:09;;;;;;;14.98;7.80;;;;;;;9.12;57.72;100203.47;5005333;28;20046;-90
2021/12/01 07:35:34;;;;;;;17.48;6.85;;;;;;;9.34;56.71;100212.63;5007416;28;20038;-87
2021/12/01 07:38:00;;;;;;;20.42;7.20;;;;;;;9.53;55.39;100209.69;5029842;28;20049;-88
2021/12/01 07:40:25;;;;;;;12.85;6.68;;;;;;;10.20;54.42;100213.88;5030259;28;20093;-88
2021/12/01 07:42:51;;;;;;;14.38;6.88;;;;;;;10.65;51.41;100218.59;5010106;28;20044;-88
2021/12/01 07:45:17;;;;;;;16.98;7.05;;;;;;;10.21;52.50;100220.81;5023901;28;20029;-86
2021/12/01 07:47:46;;;;;;;15.05;7.20;;;;;;;9.51;55.42;100222.22;5024807;28;20034;-85
2021/12/01 07:50:12;;;;;;;18.75;7.40;;;;;;;9.31;55.85;100228.81;5025357;28;20030;-85
2021/12/01 07:52:39;;;;;;;15.45;6.47;;;;;;;9.03;57.21;100225.59;5006211;28;20436;-86
2021/12/01 07:55:06;;;;;;;16.95;7.07;;;;;;;8.66;58.46;100225.91;5017627;28;20034;-87
2021/12/01 07:57:34;;;;;;;12.57;6.38;;;;;;;8.06;61.35;100216.22;4982436;28;20042;-86
2021/12/01 07:59:59;;;;;;;14.73;6.20;;;;;;;8.00;61.82;100211.56;4986093;28;20417;-87
2021/12/01 08:02:25;;;;;;;14.35;5.72;;;;;;;8.07;62.48;100209.97;5000117;28;20041;-87
2021/12/01 08:04:51;;;;;;;16.55;6.40;;;;;;;7.98;62.31;100213.53;5003673;28;20034;-85
2021/12/01 08:07:16;;;;;;;16.52;6.55;;;;;;;7.85;63.04;100213.09;4991316;28;20038;-87
2021/12/01 08:09:48;;;;;;;14.30;6.15;;;;;;;7.84;63.53;100208.78;4994355;28;20101;-88
2021/12/01 08:12:15;;;;;;;11.33;4.27;;;;;;;7.94;63.63;100204.25;5012842;28;20038;-88
2021/12/01 08:14:43;;;;;;;14.02;6.18;;;;;;;7.93;63.94;100200.78;4978811;28;20373;-87
2021/12/01 08:17:12;;;;;;;17.10;6.68;;;;;;;8.03;63.03;100212.09;4991453;28;20038;-86
2021/12/01 08:19:37;;;;;;;18.83;6.25;;;;;;;7.77;63.83;100206.78;4976896;28;20042;-87
2021/12/01 08:22:03;;;;;;;14.05;6.72;;;;;;;7.13;67.28;100199.03;5006905;28;20094;-86
2021/12/01 08:24:32;;;;;;;17.85;6.25;;;;;;;7.20;68.30;100202.75;5005452;28;20018;-87
2021/12/01 08:27:17;;;;;;;19.48;7.28;;;;;;;6.80;70.41;100204.06;4987841;28;20039;-87
2021/12/01 08:29:44;;;;;;;17.35;6.65;;;;;;;6.66;71.39;100193.03;4992552;28;20430;-88
2021/12/01 08:32:12;;;;;;;18.23;7.85;;;;;;;6.85;71.43;100197.41;4986749;28;20030;-88
2021/12/01 08:34:38;;;;;;;17.23;7.45;;;;;;;6.76;72.06;100203.56;5004809;28;20042;-85
2021/12/01 08:37:10;;;;;;;22.67;7.53;;;;;;;6.60;72.52;100214.69;4993490;28;20061;-87
2021/12/01 08:39:35;;;;;;;17.42;6.95;;;;;;;6.58;72.86;100200.84;5007366;28;20038;-86
2021/12/01 08:42:06;;;;;;;27.70;6.93;;;;;;;6.70;71.51;100189.13;5014358;28;20011;-87
2021/12/01 08:44:51;;;;;;;19.20;7.05;;;;;;;6.50;71.87;100198.09;5003684;28;20038;-87
2021/12/01 08:47:20;;;;;;;21.23;7.38;;;;;;;6.63;72.29;100193.31;5020776;28;20023;-85
2021/12/01 08:49:47;;;;;;;19.60;7.53;;;;;;;6.94;72.57;100195.69;5014866;28;20038;-90
2021/12/01 08:52:13;;;;;;;17.83;7.28;;;;;;;6.75;72.57;100197.44;5000357;28;20135;-88
2021/12/01 08:54:39;;;;;;;25.40;7.35;;;;;;;6.85;72.72;100191.31;4966918;28;20039;-88
2021/12/01 08:57:05;;;;;;;36.08;8.30;;;;;;;6.65;73.06;100190.56;4998446;28;20038;-86
2021/12/01 08:59:31;;;;;;;21.48;7.43;;;;;;;6.90;71.23;100181.13;4985584;28;20049;-85
2021/12/01 09:01:57;;;;;;;39.60;7.70;;;;;;;7.08;68.83;100180.22;5001228;28;20094;-87
2021/12/01 09:04:27;;;;;;;22.02;8.02;;;;;;;6.70;69.38;100186.50;5006770;28;20027;-88
2021/12/01 09:06:52;;;;;;;22.52;7.45;;;;;;;6.58;71.06;100195.56;4986088;28;20082;-87
2021/12/01 09:09:18;;;;;;;16.75;7.60;;;;;;;6.58;71.64;100195.56;5005716;28;20044;-87
2021/12/01 09:11:45;;;;;;;21.23;7.80;;;;;;;6.86;71.85;100192.97;5005767;28;20049;-85
2021/12/01 09:14:11;;;;;;;17.38;7.03;;;;;;;6.75;71.90;100197.44;5001975;28;20066;-86
2021/12/01 09:16:36;;;;;;;14.70;7.22;;;;;;;6.76;70.97;100198.28;4984565;28;20057;-87
2021/12/01 09:19:02;;;;;;;17.55;7.22;;;;;;;6.52;70.94;100195.31;4998713;28;20093;-84
2021/12/01 09:21:27;;;;;;;29.95;7.93;;;;;;;6.43;71.85;100191.72;5001193;28;20038;-88
2021/12/01 09:23:54;;;;;;;17.02;7.38;;;;;;;6.43;71.68;100186.47;5004369;28;20074;-87
2021/12/01 09:26:20;;;;;;;18.60;8.07;;;;;;;6.82;70.16;100186.31;4987096;28;20038;-86
2021/12/01 09:28:46;;;;;;;18.63;7.95;;;;;;;6.70;69.76;100186.50;5005332;28;20466;-86
2021/12/01 09:31:12;;;;;;;23.40;7.40;;;;;;;6.55;70.97;100174.81;5006141;28;20034;-88
2021/12/01 09:33:37;;;;;;;15.32;7.28;;;;;;;6.65;72.21;100180.03;5005257;28;20038;-85
2021/12/01 09:36:04;;;;;;;14.30;6.38;;;;;;;6.73;70.84;100178.31;5006096;28;20034;-85
2021/12/01 09:38:30;;;;;;;16.50;7.97;;;;;;;6.69;70.53;100184.03;5002559;28;20048;-89
2021/12/01 09:40:57;;;;;;;23.15;7.55;;;;;;;6.87;70.23;100171.72;4992608;28;20058;-87
2021/12/01 09:43:29;;;;;;;21.15;8.02;;;;;;;6.72;72.06;100195.09;4990457;28;20038;-85
2021/12/01 09:45:57;;;;;;;12.52;5.97;;;;;;;6.70;73.88;100186.50;5000882;28;20056;-87
2021/12/01 09:48:23;;;;;;;16.88;8.45;;;;;;;7.12;72.25;100172.84;4983233;28;20027;-88
2021/12/01 09:50:49;;;;;;;23.02;8.05;;;;;;;7.15;71.45;100172.56;5002631;28;20041;-85
2021/12/01 09:53:15;;;;;;;19.27;8.55;;;;;;;7.05;71.71;100167.34;5004196;28;20046;-85
2021/12/01 09:55:41;;;;;;;21.27;8.63;;;;;;;7.11;71.15;100168.53;5005412;28;20034;-84
2021/12/01 09:58:11;;;;;;;20.08;8.75;;;;;;;6.96;71.92;100168.22;5006794;28;20022;-86
2021/12/01 10:00:41;;;;;;;28.67;8.70;;;;;;;6.94;72.56;100169.34;5006238;28;20064;-86
2021/12/01 10:03:07;;;;;;;26.25;9.35;;;;;;;7.01;72.78;100162.50;5004673;28;20038;-87
2021/12/01 10:06:11;;;;;;;19.67;8.98;;;;;;;6.99;73.39;100154.78;5000278;28;20031;-87
2021/12/01 10:08:46;;;;;;;22.48;8.80;;;;;;;6.93;73.26;100157.97;5007834;28;20062;-86
2021/12/01 10:11:13;;;;;;;19.92;8.35;;;;;;;6.94;73.65;100159.63;5002236;28;20038;-85
2021/12/01 10:13:44;;;;;;;17.05;7.97;;;;;;;7.10;73.30;100151.06;5000022;28;20046;-85
2021/12/01 10:16:13;;;;;;;23.60;8.75;;;;;;;6.82;74.00;100146.81;4998546;28;20406;-89
2021/12/01 10:18:45;;;;;;;23.98;10.23;;;;;;;7.06;73.97;100142.63;5006249;28;20042;-89
2021/12/01 10:21:14;;;;;;;22.58;10.10;;;;;;;7.07;74.12;100138.19;4988880;28;20042;-86
2021/12/01 10:23:47;;;;;;;22.27;9.52;;;;;;;7.06;74.02;100139.19;5002592;28;20038;-86
2021/12/01 10:26:33;;;;;;;19.08;8.32;;;;;;;7.12;72.56;100125.41;4999948;28;20042;-88
2021/12/01 10:29:05;;;;;;;18.40;9.25;;;;;;;7.26;73.32;100111.69;5001877;28;20038;-89
2021/12/01 10:31:30;;;;;;;18.25;9.05;;;;;;;7.18;73.28;100114.28;4990447;28;20030;-88
2021/12/01 10:34:14;;;;;;;19.75;9.02;;;;;;;7.05;73.90;100113.81;4998300;28;20046;-86
2021/12/01 10:36:41;;;;;;;25.33;9.20;;;;;;;7.04;73.55;100112.16;4998568;28;20058;-88
2021/12/01 10:39:06;;;;;;;22.65;9.05;;;;;;;7.13;74.76;100100.69;4986297;28;20137;-89
2021/12/01 10:41:37;;;;;;;25.15;9.88;;;;;;;7.13;73.87;100096.25;5000242;28;20041;-87
2021/12/01 10:44:17;;;;;;;20.23;9.88;;;;;;;7.21;72.32;100099.00;5000234;28;20042;-89
2021/12/01 10:46:46;;;;;;;15.38;9.77;;;;;;;7.15;73.30;100081.16;4997116;28;20034;-88
2021/12/01 10:49:11;;;;;;;20.48;9.93;;;;;;;7.15;73.34;100075.03;4977060;28;20045;-87
2021/12/01 10:51:39;;;;;;;17.10;10.18;;;;;;;7.10;75.26;100072.03;4994485;28;20071;-87
2021/12/01 10:54:13;;;;;;;21.70;10.60;;;;;;;7.05;75.49;100061.13;4994832;28;20101;-86
2021/12/01 10:56:39;;;;;;;22.58;10.50;;;;;;;7.16;75.07;100058.22;4962414;28;20445;-91
2021/12/01 10:59:13;;;;;;;21.45;10.75;;;;;;;7.26;75.11;100056.34;4999461;28;20030;-91
2021/12/01 11:01:39;;;;;;;23.50;11.63;;;;;;;7.20;75.66;100052.53;5002986;28;20035;-90
2021/12/01 11:04:05;;;;;;;25.40;11.02;;;;;;;7.56;74.23;100049.81;5002077;28;20057;-88
2021/12/01 11:06:38;;;;;;;27.80;11.75;;;;;;;7.55;74.42;100048.19;4988946;28;20413;-87
2021/12/01 11:09:04;;;;;;;36.63;12.98;;;;;;;7.44;74.42;100045.78;5001973;28;20034;-86
2021/12/01 11:11:50;;;;;;;20.83;10.13;;;;;;;7.37;75.03;100042.09;4998493;28;20034;-88
2021/12/01 11:14:17;;;;;;;24.38;9.52;;;;;;;7.33;75.64;100044.22;4997506;28;20038;-88
2021/12/01 11:16:44;;;;;;;16.88;8.82;;;;;;;7.51;72.99;100041.56;4999721;28;20042;-86
2021/12/01 11:19:12;;;;;;;21.80;9.50;;;;;;;7.35;74.12;100042.28;4995388;28;20046;-87
2021/12/01 11:21:41;;;;;;;29.67;9.18;;;;;;;7.19;74.57;100031.59;4984005;28;20034;-87
2021/12/01 11:24:09;;;;;;;23.30;8.85;;;;;;;7.42;74.88;100027.50;4980741;28;20496;-85
2021/12/01 11:26:36;;;;;;;17.48;9.50;;;;;;;7.73;73.26;100018.13;4978089;28;20038;-87
2021/12/01 11:29:08;;;;;;;16.33;8.75;;;;;;;7.70;73.12;100010.53;4978713;28;20041;-86
2021/12/01 11:31:46;;;;;;;30.08;9.48;;;;;;;7.76;73.56;100009.91;5002763;28;20022;-86
2021/12/01 11:34:17;;;;;;;26.13;9.57;;;;;;;7.89;73.23;100003.41;5018261;28;20034;-84
2021/12/01 11:36:49;;;;;;;22.58;9.18;;;;;;;8.05;72.08;99999.00;5001393;28;20022;-87